Time,TemperatureF,DewpointF,PressureIn,WindDirection,WindDirectionDegrees,WindSpeedMPH,WindSpeedGustMPH,Humidity,HourlyPrecipIn,Conditions,Clouds,dailyrainin,SolarRadiationWatts/m^2,SoftwareType,DateUTC
2013-03-26 00:02:00,56.0,13.0,-100.00,North,8,6.0,15.0,18,0.00,,,0.00,427.000000,,2013-03-26 00:02:00,
2013-03-26 01:33:00,51.0,12.0,-100.00,NE,46,8.0,13.0,21,-99.99,,,0.00,34.000000,,2013-03-26 01:33:00,
2013-03-26 01:42:00,51.0,12.0,-100.00,NE,46,8.0,13.0,21,-99.99,,,0.00,34.000000,,2013-03-26 01:42:00,
2013-03-26 01:52:00,51.0,12.0,-100.00,NE,46,8.0,13.0,21,-99.99,,,0.00,34.000000,,2013-03-26 01:52:00,
2013-03-26 02:02:00,51.0,12.0,-100.00,NE,46,8.0,13.0,21,-99.99,,,0.00,34.000000,,2013-03-26 02:02:00,
2013-03-26 02:32:00,47.0,12.0,-100.00,NE,49,7.0,12.0,24,0.00,,,0.00,1.000000,,2013-03-26 02:32:00,
2013-03-26 02:43:00,47.0,12.0,-100.00,NE,49,7.0,12.0,24,0.00,,,0.00,1.000000,,2013-03-26 02:43:00,
2013-03-26 02:52:00,47.0,12.0,-100.00,NE,49,7.0,12.0,24,0.00,,,0.00,1.000000,,2013-03-26 02:52:00,
2013-03-26 03:02:00,47.0,12.0,-100.00,NE,49,7.0,12.0,24,0.00,,,0.00,1.000000,,2013-03-26 03:02:00,
2013-03-26 03:34:00,45.0,13.0,-100.00,NE,52,9.0,12.0,27,0.00,,,0.00,1.000000,,2013-03-26 03:34:00,
2013-03-26 03:43:00,45.0,13.0,-100.00,NE,52,9.0,12.0,27,0.00,,,0.00,1.000000,,2013-03-26 03:43:00,
2013-03-26 03:53:00,45.0,13.0,-100.00,NE,52,9.0,12.0,27,0.00,,,0.00,1.000000,,2013-03-26 03:53:00,
2013-03-26 04:03:00,45.0,13.0,-100.00,NE,52,9.0,12.0,27,0.00,,,0.00,1.000000,,2013-03-26 04:03:00,
2013-03-26 04:33:00,44.0,12.0,-100.00,NE,43,11.0,15.0,27,0.00,,,0.00,1.000000,,2013-03-26 04:33:00,
2013-03-26 04:43:00,44.0,12.0,-100.00,NE,43,11.0,15.0,27,0.00,,,0.00,1.000000,,2013-03-26 04:43:00,
2013-03-26 04:53:00,44.0,12.0,-100.00,NE,43,11.0,15.0,27,0.00,,,0.00,1.000000,,2013-03-26 04:53:00,
2013-03-26 05:02:00,44.0,12.0,-100.00,NE,43,11.0,15.0,27,0.00,,,0.00,1.000000,,2013-03-26 05:02:00,
2013-03-26 05:32:00,41.0,12.0,-100.00,ENE,65,7.0,14.0,30,0.00,,,0.00,1.000000,,2013-03-26 05:32:00,
2013-03-26 05:42:00,41.0,12.0,-100.00,ENE,65,7.0,14.0,30,0.00,,,0.00,1.000000,,2013-03-26 05:42:00,
2013-03-26 05:52:00,41.0,12.0,-100.00,ENE,65,7.0,14.0,30,0.00,,,0.00,1.000000,,2013-03-26 05:52:00,
2013-03-26 06:02:00,41.0,12.0,-100.00,ENE,65,7.0,14.0,30,0.00,,,0.00,1.000000,,2013-03-26 06:02:00,
2013-03-26 06:32:00,37.0,11.0,-100.00,ESE,118,6.0,11.0,34,0.00,,,0.00,1.000000,,2013-03-26 06:32:00,
2013-03-26 06:43:00,37.0,11.0,-100.00,ESE,118,6.0,11.0,34,0.00,,,0.00,1.000000,,2013-03-26 06:43:00,
2013-03-26 06:52:00,37.0,11.0,-100.00,ESE,118,6.0,11.0,34,0.00,,,0.00,1.000000,,2013-03-26 06:52:00,
2013-03-26 07:02:00,37.0,11.0,-100.00,ESE,118,6.0,11.0,34,0.00,,,0.00,1.000000,,2013-03-26 07:02:00,
2013-03-26 07:33:00,35.0,13.0,-100.00,SE,144,4.0,5.0,40,0.00,,,0.00,1.000000,,2013-03-26 07:33:00,
2013-03-26 07:43:00,35.0,13.0,-100.00,SE,144,4.0,5.0,40,0.00,,,0.00,1.000000,,2013-03-26 07:43:00,
2013-03-26 07:53:00,35.0,13.0,-100.00,SE,144,4.0,5.0,40,0.00,,,0.00,1.000000,,2013-03-26 07:53:00,
2013-03-26 08:02:00,35.0,13.0,-100.00,SE,144,4.0,5.0,40,0.00,,,0.00,1.000000,,2013-03-26 08:02:00,
2013-03-26 08:32:00,35.0,14.0,-100.00,SE,135,4.0,5.0,41,0.00,,,0.00,1.000000,,2013-03-26 08:32:00,
2013-03-26 08:42:00,35.0,14.0,-100.00,SE,135,4.0,5.0,41,0.00,,,0.00,1.000000,,2013-03-26 08:42:00,
2013-03-26 08:52:00,35.0,14.0,-100.00,SE,135,4.0,5.0,41,0.00,,,0.00,1.000000,,2013-03-26 08:52:00,
2013-03-26 09:02:00,35.0,14.0,-100.00,SE,135,4.0,5.0,41,0.00,,,0.00,1.000000,,2013-03-26 09:02:00,
2013-03-26 09:33:00,34.0,13.0,-100.00,ENE,71,3.0,5.0,41,0.00,,,0.00,1.000000,,2013-03-26 09:33:00,
2013-03-26 09:43:00,34.0,13.0,-100.00,ENE,71,3.0,5.0,41,0.00,,,0.00,1.000000,,2013-03-26 09:43:00,
2013-03-26 09:52:00,34.0,13.0,-100.00,ENE,71,3.0,5.0,41,0.00,,,0.00,1.000000,,2013-03-26 09:52:00,
2013-03-26 10:02:00,34.0,13.0,-100.00,ENE,71,3.0,5.0,41,0.00,,,0.00,1.000000,,2013-03-26 10:02:00,
2013-03-26 10:33:00,32.0,16.0,-100.00,ESE,120,3.0,4.0,52,0.00,,,0.00,1.000000,,2013-03-26 10:33:00,
2013-03-26 10:43:00,32.0,16.0,-100.00,ESE,120,3.0,4.0,52,0.00,,,0.00,1.000000,,2013-03-26 10:43:00,
2013-03-26 10:53:00,32.0,16.0,-100.00,ESE,120,3.0,4.0,52,0.00,,,0.00,1.000000,,2013-03-26 10:53:00,
2013-03-26 11:03:00,32.0,16.0,-100.00,ESE,120,3.0,4.0,52,0.00,,,0.00,1.000000,,2013-03-26 11:03:00,
2013-03-26 11:33:00,29.0,13.0,-100.00,South,179,0.0,4.0,50,0.00,,,0.00,1.000000,,2013-03-26 11:33:00,
2013-03-26 11:43:00,29.0,13.0,-100.00,South,179,0.0,4.0,50,0.00,,,0.00,1.000000,,2013-03-26 11:43:00,
2013-03-26 11:52:00,29.0,13.0,-100.00,South,179,0.0,4.0,50,0.00,,,0.00,1.000000,,2013-03-26 11:52:00,
2013-03-26 12:03:00,29.0,13.0,-100.00,South,179,0.0,4.0,50,0.00,,,0.00,1.000000,,2013-03-26 12:03:00,
2013-03-26 12:32:00,33.0,12.0,-100.00,NE,43,4.0,6.0,42,0.00,,,0.00,1.000000,,2013-03-26 12:32:00,
2013-03-26 12:43:00,33.0,12.0,-100.00,NE,43,4.0,6.0,42,0.00,,,0.00,1.000000,,2013-03-26 12:43:00,
2013-03-26 12:52:00,33.0,12.0,-100.00,NE,43,4.0,6.0,42,0.00,,,0.00,1.000000,,2013-03-26 12:52:00,
2013-03-26 13:03:00,33.0,12.0,-100.00,NE,43,4.0,6.0,42,0.00,,,0.00,1.000000,,2013-03-26 13:03:00,
2013-03-26 13:32:00,32.0,12.0,-100.00,ESE,120,1.0,5.0,43,0.00,,,0.00,19.000000,,2013-03-26 13:32:00,
2013-03-26 13:42:00,32.0,12.0,-100.00,ESE,120,1.0,5.0,43,0.00,,,0.00,19.000000,,2013-03-26 13:42:00,
2013-03-26 13:52:00,32.0,12.0,-100.00,ESE,120,1.0,5.0,43,0.00,,,0.00,19.000000,,2013-03-26 13:52:00,
2013-03-26 14:02:00,32.0,12.0,-100.00,ESE,120,1.0,5.0,43,0.00,,,0.00,19.000000,,2013-03-26 14:02:00,
2013-03-26 14:33:00,40.0,19.0,-100.00,SE,128,5.0,8.0,42,0.00,,,0.00,189.000000,,2013-03-26 14:33:00,
2013-03-26 14:42:00,40.0,19.0,-100.00,SE,128,5.0,8.0,42,0.00,,,0.00,189.000000,,2013-03-26 14:42:00,
2013-03-26 14:53:00,40.0,19.0,-100.00,SE,128,5.0,8.0,42,0.00,,,0.00,189.000000,,2013-03-26 14:53:00,
2013-03-26 15:02:00,40.0,19.0,-100.00,SE,128,5.0,8.0,42,0.00,,,0.00,189.000000,,2013-03-26 15:02:00,
2013-03-26 15:33:00,46.0,17.0,-100.00,SE,145,7.0,11.0,31,0.00,,,0.00,401.000000,,2013-03-26 15:33:00,
2013-03-26 15:43:00,46.0,17.0,-100.00,SE,145,7.0,11.0,31,0.00,,,0.00,401.000000,,2013-03-26 15:43:00,
2013-03-26 15:53:00,46.0,17.0,-100.00,SE,145,7.0,11.0,31,0.00,,,0.00,401.000000,,2013-03-26 15:53:00,
2013-03-26 16:03:00,46.0,17.0,-100.00,SE,145,7.0,11.0,31,0.00,,,0.00,401.000000,,2013-03-26 16:03:00,
2013-03-26 16:33:00,52.0,17.0,-100.00,SE,145,10.0,15.0,25,0.00,,,0.00,572.000000,,2013-03-26 16:33:00,
2013-03-26 16:42:00,52.0,17.0,-100.00,SE,145,10.0,15.0,25,0.00,,,0.00,572.000000,,2013-03-26 16:42:00,
2013-03-26 16:53:00,52.0,17.0,-100.00,SE,145,10.0,15.0,25,0.00,,,0.00,572.000000,,2013-03-26 16:53:00,
2013-03-26 17:02:00,52.0,17.0,-100.00,SE,145,10.0,15.0,25,0.00,,,0.00,572.000000,,2013-03-26 17:02:00,
2013-03-26 17:33:00,56.0,16.0,-100.00,SSE,150,10.0,16.0,20,0.00,,,0.00,745.000000,,2013-03-26 17:33:00,
2013-03-26 17:42:00,56.0,16.0,-100.00,SSE,150,10.0,16.0,20,0.00,,,0.00,745.000000,,2013-03-26 17:42:00,
2013-03-26 17:53:00,56.0,16.0,-100.00,SSE,150,10.0,16.0,20,0.00,,,0.00,745.000000,,2013-03-26 17:53:00,
2013-03-26 18:02:00,56.0,16.0,-100.00,SSE,150,10.0,16.0,20,0.00,,,0.00,745.000000,,2013-03-26 18:02:00,
2013-03-26 19:33:00,61.0,14.0,-100.00,SSE,167,9.0,15.0,16,-99.99,,,0.00,876.000000,,2013-03-26 19:33:00,
2013-03-26 19:42:00,61.0,14.0,-100.00,SSE,167,9.0,15.0,16,-99.99,,,0.00,876.000000,,2013-03-26 19:42:00,
2013-03-26 19:53:00,61.0,14.0,-100.00,SSE,167,9.0,15.0,16,-99.99,,,0.00,876.000000,,2013-03-26 19:53:00,
2013-03-26 20:02:00,61.0,14.0,-100.00,SSE,167,9.0,15.0,16,-99.99,,,0.00,876.000000,,2013-03-26 20:02:00,
2013-03-26 20:32:00,63.0,15.0,-100.00,South,176,10.0,19.0,15,0.00,,,0.00,847.000000,,2013-03-26 20:32:00,
2013-03-26 20:43:00,63.0,15.0,-100.00,South,176,10.0,19.0,15,0.00,,,0.00,847.000000,,2013-03-26 20:43:00,
2013-03-26 20:52:00,63.0,15.0,-100.00,South,176,10.0,19.0,15,0.00,,,0.00,847.000000,,2013-03-26 20:52:00,
2013-03-26 21:02:00,63.0,15.0,-100.00,South,176,10.0,19.0,15,0.00,,,0.00,847.000000,,2013-03-26 21:02:00,
2013-03-26 21:33:00,65.0,13.0,-100.00,SE,145,8.0,18.0,13,0.00,,,0.00,759.000000,,2013-03-26 21:33:00,
2013-03-26 21:43:00,65.0,13.0,-100.00,SE,145,8.0,18.0,13,0.00,,,0.00,759.000000,,2013-03-26 21:43:00,
2013-03-26 21:52:00,65.0,13.0,-100.00,SE,145,8.0,18.0,13,0.00,,,0.00,759.000000,,2013-03-26 21:52:00,
2013-03-26 22:02:00,65.0,13.0,-100.00,SE,145,8.0,18.0,13,0.00,,,0.00,759.000000,,2013-03-26 22:02:00,
2013-03-26 22:33:00,66.0,14.0,-100.00,South,179,8.0,19.0,13,0.00,,,0.00,615.000000,,2013-03-26 22:33:00,
2013-03-26 22:42:00,66.0,14.0,-100.00,South,179,8.0,19.0,13,0.00,,,0.00,615.000000,,2013-03-26 22:42:00,
2013-03-26 22:52:00,66.0,14.0,-100.00,South,179,8.0,19.0,13,0.00,,,0.00,615.000000,,2013-03-26 22:52:00,
2013-03-26 23:01:00,66.0,14.0,-100.00,South,179,8.0,19.0,13,0.00,,,0.00,615.000000,,2013-03-26 23:01:00,
2013-03-26 23:32:00,66.0,14.0,-100.00,SSE,159,12.0,20.0,13,0.00,,,0.00,428.000000,,2013-03-26 23:32:00,
2013-03-26 23:43:00,66.0,14.0,-100.00,SSE,159,12.0,20.0,13,0.00,,,0.00,428.000000,,2013-03-26 23:43:00,
2013-03-26 23:53:00,66.0,14.0,-100.00,SSE,159,12.0,20.0,13,0.00,,,0.00,428.000000,,2013-03-26 23:53:00,